Welcome to our new website - Welkom op onze vernieuwde website - Bienvenue sur notre nouveau site web - Willkommen auf unserer neuen Website
Check our progress frequently. Prüfen Sie unsere Fortschritte regelmäßig. Consultez notre progression fréquemment. Komt u straks nog eens terug
Thunderstorms From: 11-05-2021 09:00 Until: 12-05-2021 00:59 warning for: Thunderstorms Level: Orange info button
Rain From: 11-05-2021 09:00 Until: 12-05-2021 00:59 warning for: Rain Level: Orange info button
Wind From: 11-05-2021 09:00 Until: 18:59 warning for: Wind Level: Yellow info button

Webcam Vaggio more information Webcam Vaggio


warning for Thunderstorms more information blitzortung!


warning for Rain more information rain snow radar


Visit our other weather sites:

Template documentation
and downloads

And another site



Nearby METAR Reports

   
LIRQ - Firenze
Updated: 11-05-2021 15:50
Light Rain, Mostly Cloudy  
Light Rain, Mostly Cloudy  
   Wind: SSW 13 km/h
Wind: SSW 13 km/h
Temperature: 16°C
Dew Point: 14°C
Humidity: 88%
Barometer: 1011 hPa
Clouds: Mostly Cloudy
Visibility: 9 km
Cloud details: Partly Cloudy 2000 ft,
Mostly Cloudy 6000 ft
LIRQ 111350Z 21007KT 180V250 9000 -RA SCT020 BKN060 16/14 Q1011
LIRS - Grosseto
Updated: 11-05-2021 16:12
Light Rain, Mostly Cloudy  
Light Rain, Mostly Cloudy  
   Wind: SSE 11.1 km/h
Wind: SSE 11.1 km/h
Temperature: 17°C
Dew Point: 14°C
Humidity: 83%
Barometer: 1010 hPa
Clouds: Mostly Cloudy
Visibility: 7 km
Cloud details: Partly Cloudy 700 ft,
Mostly Cloudy 1500 ft
LIRS 111412Z 16006KT 7000 -RA SCT007 BKN015 17/14 Q1010 RERA
LIRP - Pisa
Updated: 11-05-2021 15:45
Rain, Mist, Mostly Cloudy  
Rain, Mist, Mostly Cloudy  
   Wind: WSW 13 km/h
Wind: WSW 13 km/h
Temperature: 14°C
Dew Point: 14°C
Humidity: 100%
Barometer: 1011 hPa
Clouds: Mostly Cloudy
Visibility: 5 km
Cloud details: Partly Cloudy 1500 ft,
Mostly Cloudy 2500 ft
LIRP 111345Z 25007KT 5000 RA BR SCT015 BKN025 14/14 Q1011 NOSIG
LIRZ - Perugia
Updated: 11-05-2021 15:50
Mostly Cloudy  
Mostly Cloudy  
   Wind: WSW 31.5 km/h
Wind: WSW 31.5 km/h
Temperature: 21°C
Dew Point: 12°C
Humidity: 57%
Barometer: 1012 hPa
Clouds: Mostly Cloudy
Visibility: More than 10 km
Cloud details: Few Clouds 6000 ft,
Mostly Cloudy 12000 ft
LIRZ 111350Z AUTO 24017KT 9999 FEW060/// BKN120/// 21/12 Q1012
LIML - Milano
Updated: 11-05-2021 15:50
Rain, Mist, Mostly Cloudy  
Rain, Mist, Mostly Cloudy  
   Wind: East 14.8 km/h
Wind: East 14.8 km/h
Temperature: 15°C
Dew Point: 14°C
Humidity: 94%
Barometer: 1010 hPa
Clouds: Mostly Cloudy
Visibility: 5 km
Cloud details: Few Clouds 1000 ft,
Partly Cloudy 2500 ft,
Mostly Cloudy 5000 ft
LIML 111350Z 09008KT 5000 RA BR FEW010 SCT025 BKN050 15/14 Q1010 NOSIG
LIRF - Roma
Updated: 11-05-2021 15:50
Light Rain, Partly Cloudy  
Light Rain, Partly Cloudy  
   Wind: WSW 14.8 km/h
Wind: WSW 14.8 km/h
Temperature: 18°C
Dew Point: 16°C
Humidity: 88%
Barometer: 1014 hPa
Clouds: Partly Cloudy
Visibility: 8 km
Cloud details: Partly Cloudy 1000 ft,
Partly Cloudy 4000 ft
LIRF 111350Z 24008KT 8000 -RA SCT010 SCT040 18/16 Q1014 TEMPO RA
EFHK - Helsinki
Updated: 11-05-2021 15:50
Clear  
Clear  
   Wind: South 18.5 km/h
Wind: South 18.5 km/h
Temperature: 25°C
Dew Point: 6°C
Humidity: 30%
Barometer: 1017 hPa
Visibility: More than 10 km
Cloud details: Clear
EFHK 111350Z 18010KT CAVOK 25/06 Q1017 NOSIG
LEMD - Madrid
Updated: 11-05-2021 16:00
Mostly Cloudy  
Mostly Cloudy  
   Wind: West 13 km/h
Wind: West 13 km/h
Temperature: 19°C
Dew Point: 0°C
Humidity: 28%
Barometer: 1020 hPa
Clouds: Mostly Cloudy
Visibility: More than 10 km
Cloud details: Mostly Cloudy 6500 ft
LEMD 111400Z 27007KT 200V360 9999 BKN065 19/M00 Q1020 NOSIG
UUEE - Mosca
Updated: 11-05-2021 16:00
Clear  
Clear  
   Wind: NE 21.7 km/h<br />Gust to 21.7 km/h
Wind: NE 21.7 km/h
Gust to 21.7 km/h
Temperature: 22°C
Dew Point: 1°C
Humidity: 25%
Barometer: 1025 hPa
Visibility: More than 10 km
Cloud details: Clear
UUEE 111400Z 04006G11MPS 010V070 CAVOK 22/01 Q1025 R06C/CLRD62 R06L/CLRD62 NOSIG

Script developed by  Saratoga-weather.org Adapted for the template by  Weerstation Leuven

You find our weather info also at:

UK Metoffice

WeatherCloud

Weather Underground

Lineameteo

AWEKAS

HAMweather, WeatherForYou, PWS Weather